Time;durP1;ratioP1;P1;durP2;ratioP2;P2;SDS_P1;SDS_P2;PMS_P1;PMS_P2;Temp;Humidity;BMP_temperature;BMP_pressure;BME280_temperature;BME280_humidity;BME280_pressure;Samples;Min_cycle;Max_cycle;Signal;HPM_P1;HPM_P2
2024/03/27 06:18:20;;;;;;;;;;;;;;;7.09;100.00;96690.97;4902615;29;19927;-84
2024/03/27 06:20:46;;;;;;;;;;;;;;;7.13;100.00;96694.19;4916162;29;19923;-88
2024/03/27 06:23:12;;;;;;;;;;;;;;;7.11;100.00;96690.84;4916009;29;19923;-88
2024/03/27 06:25:37;;;;;;;;;;;;;;;7.09;100.00;96696.25;4916034;29;19919;-86
2024/03/27 06:28:02;;;;;;;;;;;;;;;7.10;100.00;96687.41;4916180;29;19919;-87
2024/03/27 06:30:27;;;;;;;;;;;;;;;7.19;100.00;96688.47;4914799;29;19919;-87
2024/03/27 06:32:52;;;;;;;;;;;;;;;7.13;100.00;96689.75;4914784;29;19923;-86
2024/03/27 06:35:21;;;;;;;;;;;;;;;7.16;100.00;96691.31;4915888;29;19919;-85
2024/03/27 06:37:46;;;;;;;;;;;;;;;7.11;100.00;96696.13;4916036;29;20359;-85
2024/03/27 06:40:11;;;;;;;;;;;;;;;7.11;100.00;96686.41;4915812;29;19987;-86
2024/03/27 06:42:37;;;;;;;;;;;;;;;7.15;100.00;96687.88;4916206;29;19919;-85
2024/03/27 06:45:03;;;;;;;;;;;;;;;7.08;100.00;96684.88;4915908;29;20298;-85
2024/03/27 06:47:28;;;;;;;;;;;;;;;7.14;100.00;96691.44;4914560;29;19926;-88
2024/03/27 06:49:53;;;;;;;;;;;;;;;7.18;100.00;96702.56;4915872;29;20291;-87
2024/03/27 06:52:19;;;;;;;;;;;;;;;7.19;100.00;96693.72;4916862;29;19925;-85
2024/03/27 06:54:48;;;;;;;;;;;;;;;7.19;100.00;96710.34;4918462;29;19960;-89
2024/03/27 06:57:13;;;;;;;;;;;;;;;7.20;100.00;96709.41;4919272;29;19923;-86
2024/03/27 06:59:38;;;;;;;;;;;;;;;7.23;100.00;96711.81;4919979;29;19919;-84
2024/03/27 07:02:05;;;;;;;;;;;;;;;7.21;100.00;96719.00;4918361;29;19930;-84
2024/03/27 07:04:30;;;;;;;;;;;;;;;7.21;100.00;96715.50;4919271;29;19919;-87
2024/03/27 07:06:55;;;;;;;;;;;;;;;7.22;100.00;96730.34;4919441;29;20015;-89
2024/03/27 07:09:21;;;;;;;;;;;;;;;7.23;100.00;96732.03;4919397;29;19919;-87
2024/03/27 07:11:46;;;;;;;;;;;;;;;7.28;100.00;96735.97;4918229;29;19942;-89
2024/03/27 07:14:11;;;;;;;;;;;;;;;7.25;100.00;96745.91;4919248;29;19974;-89
2024/03/27 07:16:37;;;;;;;;;;;;;;;7.27;100.00;96741.38;4917957;29;19930;-85
2024/03/27 07:19:02;;;;;;;;;;;;;;;7.25;100.00;96746.75;4917823;29;20063;-84
2024/03/27 07:21:27;;;;;;;;;;;;;;;7.26;100.00;96744.97;4917688;29;19923;-84
2024/03/27 07:23:52;;;;;;;;;;;;;;;7.28;100.00;96746.50;4917928;29;19919;-87
2024/03/27 07:26:18;;;;;;;;;;;;;;;7.29;100.00;96734.16;4919043;29;19923;-86
2024/03/27 07:28:43;;;;;;;;;;;;;;;7.28;100.00;96740.41;4918304;29;19919;-86
2024/03/27 07:31:08;;;;;;;;;;;;;;;7.29;100.00;96742.06;4916511;29;20426;-84
2024/03/27 07:33:33;;;;;;;;;;;;;;;7.28;100.00;96737.78;4918989;29;19923;-83
2024/03/27 07:35:59;;;;;;;;;;;;;;;7.30;100.00;96742.94;4918806;29;20263;-84
2024/03/27 07:38:24;;;;;;;;;;;;;;;7.30;100.00;96743.75;4917610;29;20091;-85
2024/03/27 07:40:50;;;;;;;;;;;;;;;7.31;100.00;96748.06;4917517;29;19926;-84
2024/03/27 07:43:15;;;;;;;;;;;;;;;7.33;100.00;96746.16;4918784;29;20018;-84
2024/03/27 07:45:41;;;;;;;;;;;;;;;7.35;100.00;96749.50;4918800;29;19919;-84
2024/03/27 07:48:06;;;;;;;;;;;;;;;7.30;100.00;96740.28;4917539;29;19976;-84
2024/03/27 07:50:31;;;;;;;;;;;;;;;7.30;100.00;96750.84;4918453;29;19915;-84
2024/03/27 07:52:57;;;;;;;;;;;;;;;7.32;100.00;96752.38;4918526;29;19923;-83
2024/03/27 07:55:22;;;;;;;;;;;;;;;7.33;100.00;96748.78;4918584;29;20410;-83
2024/03/27 07:57:47;;;;;;;;;;;;;;;7.35;100.00;96743.41;4918630;29;20317;-83
2024/03/27 08:00:13;;;;;;;;;;;;;;;7.35;100.00;96746.88;4918333;29;19919;-83
2024/03/27 08:02:38;;;;;;;;;;;;;;;7.39;100.00;96745.69;4916649;29;19919;-84
2024/03/27 08:05:05;;;;;;;;;;;;;;;7.33;100.00;96746.16;4918146;29;19925;-84
2024/03/27 08:07:30;;;;;;;;;;;;;;;7.35;100.00;96746.88;4916954;29;19923;-83
2024/03/27 08:09:55;;;;;;;;;;;;;;;7.30;100.00;96758.72;4917253;29;19925;-84
2024/03/27 08:12:21;;;;;;;;;;;;;;;7.36;100.00;96763.53;4918269;29;20010;-83
2024/03/27 08:14:46;;;;;;;;;;;;;;;7.39;100.00;96764.13;4918339;29;19953;-84
2024/03/27 08:17:11;;;;;;;;;;;;;;;7.43;100.00;96773.44;4915653;29;19923;-83
2024/03/27 08:19:40;;;;;;;;;;;;;;;7.46;100.00;96770.56;4931865;29;19923;-84
2024/03/27 08:22:09;;;;;;;;;;;;;;;7.44;100.00;96777.75;4918119;29;19923;-81
2024/03/27 08:24:34;;;;;;;;;;;;;;;7.53;100.00;96776.22;4917816;29;19923;-83
2024/03/27 08:27:03;;;;;;;;;;;;;;;7.52;100.00;96784.25;4918217;29;19928;-83
2024/03/27 08:29:29;;;;;;;;;;;;;;;7.56;100.00;96785.66;4916738;29;20002;-83
2024/03/27 08:31:55;;;;;;;;;;;;;;;7.54;100.00;96788.41;4915468;29;20001;-82
2024/03/27 08:34:20;;;;;;;;;;;;;;;7.51;100.00;96798.38;4917810;29;19919;-84
2024/03/27 08:36:45;;;;;;;;;;;;;;;7.54;100.00;96798.13;4917610;29;19919;-83
2024/03/27 08:39:11;;;;;;;;;;;;;;;7.46;100.00;96796.91;4916714;29;19929;-82
2024/03/27 08:41:36;;;;;;;;;;;;;;;7.45;100.00;96795.25;4917722;29;20017;-84
2024/03/27 08:44:03;;;;;;;;;;;;;;;7.40;100.00;96786.88;4917754;29;19987;-84
2024/03/27 08:46:28;;;;;;;;;;;;;;;7.42;100.00;96792.88;4916393;29;19923;-84
2024/03/27 08:59:47;;;;;;;;;;;;;;;7.52;100.00;96798.25;4917344;29;19934;-84
2024/03/27 09:02:12;;;;;;;;;;;;;;;7.50;100.00;96807.22;4917518;29;19928;-82
2024/03/27 09:04:37;;;;;;;;;;;;;;;7.52;100.00;96805.31;4917121;29;19967;-83
2024/03/27 09:07:03;;;;;;;;;;;;;;;7.52;100.00;96805.31;4917450;29;19930;-84
2024/03/27 09:09:28;;;;;;;;;;;;;;;7.50;100.00;96812.50;4916979;29;19954;-83
2024/03/27 09:11:53;;;;;;;;;;;;;;;7.49;100.00;96816.09;4916097;29;19931;-81
2024/03/27 09:14:19;;;;;;;;;;;;;;;7.50;100.00;96807.22;4916451;29;19915;-82
2024/03/27 09:16:44;;;;;;;;;;;;;;;7.53;100.00;96814.88;4917060;29;19919;-82
2024/03/27 09:19:10;;;;;;;;;;;;;;;7.58;100.00;96825.94;4917257;29;20338;-82
2024/03/27 09:21:35;;;;;;;;;;;;;;;7.57;100.00;96837.41;4917323;29;19915;-79
2024/03/27 09:24:00;;;;;;;;;;;;;;;7.59;100.00;96848.66;4917325;29;19926;-81
2024/03/27 09:26:25;;;;;;;;;;;;;;;7.58;100.00;96854.91;4915629;29;20283;-82
2024/03/27 09:28:51;;;;;;;;;;;;;;;7.58;100.00;96852.28;4916844;29;19978;-90
2024/03/27 09:31:22;;;;;;;;;;;;;;;7.58;100.00;96852.28;4900049;29;19934;-86
2024/03/27 09:33:47;;;;;;;;;;;;;;;7.60;100.00;96856.47;4916619;29;19930;-81
2024/03/27 09:36:14;;;;;;;;;;;;;;;7.59;100.00;96857.41;4916892;29;20013;-81
2024/03/27 09:38:39;;;;;;;;;;;;;;;7.58;100.00;96868.91;4916510;29;20426;-83
2024/03/27 09:41:04;;;;;;;;;;;;;;;7.56;100.00;96869.97;4915862;29;20030;-81
2024/03/27 09:43:31;;;;;;;;;;;;;;;7.61;100.00;96866.06;4916460;29;20267;-81
2024/03/27 09:45:57;;;;;;;;;;;;;;;7.60;100.00;96864.38;4916514;29;20394;-81
2024/03/27 09:48:22;;;;;;;;;;;;;;;7.63;100.00;96877.31;4916864;29;19919;-80
2024/03/27 09:50:48;;;;;;;;;;;;;;;7.63;100.00;96879.94;4916460;29;20446;-81
2024/03/27 09:53:14;;;;;;;;;;;;;;;7.66;100.00;96886.78;4916541;29;20359;-80
2024/03/27 09:55:39;;;;;;;;;;;;;;;7.76;100.00;96887.72;4916298;29;19923;-82
2024/03/27 09:58:11;;;;;;;;;;;;;;;11.13;100.00;96884.22;4915114;29;20287;-85
2024/03/27 10:00:37;;;;;;;;;;;;;;;10.11;100.00;96876.50;4898722;29;19934;-80
2024/03/27 10:03:03;;;;;;;;;;;;;;;9.18;100.00;96886.16;4916303;29;19923;-82
2024/03/27 10:05:28;;;;;;;;;;;;;;;8.78;100.00;96886.81;4916229;29;20298;-81
2024/03/27 10:07:54;;;;;;;;;;;;;;;8.55;100.00;96892.13;4916352;29;20021;-80
2024/03/27 10:10:20;;;;;;;;;;;;;;;8.39;100.00;96894.28;4899502;29;19990;-80
2024/03/27 10:12:45;;;;;;;;;;;;;;;8.35;100.00;96896.34;4914332;29;19926;-84
2024/03/27 10:15:11;;;;;;;;;;;;;;;8.16;100.00;96900.44;4916329;29;19919;-81
2024/03/27 10:17:36;;;;;;;;;;;;;;;7.49;100.00;96898.59;4916008;29;19970;-82
2024/03/27 10:20:02;;;;;;;;;;;;;;;6.67;100.00;96904.66;4916066;29;19923;-83
2024/03/27 10:22:29;;;;;;;;;;;;;;;6.30;100.00;96911.72;4916335;29;19931;-84
2024/03/27 10:24:55;;;;;;;;;;;;;;;6.11;100.00;96917.44;4915541;29;20363;-82
2024/03/27 10:27:20;;;;;;;;;;;;;;;5.98;100.00;96918.31;4914777;29;20366;-81
2024/03/27 10:29:46;;;;;;;;;;;;;;;5.84;100.00;96923.66;4915966;29;19919;-80
2024/03/27 10:32:12;;;;;;;;;;;;;;;5.70;100.00;96918.53;4916260;29;20389;-80
2024/03/27 10:34:39;;;;;;;;;;;;;;;5.59;100.00;96927.97;4899234;29;20275;-83
2024/03/27 10:37:05;;;;;;;;;;;;;;;5.48;100.00;96927.03;4915917;29;19915;-82
2024/03/27 10:39:32;;;;;;;;;;;;;;;5.42;100.00;96923.84;4916120;29;19919;-81
2024/03/27 10:41:57;;;;;;;;;;;;;;;5.31;100.00;96923.72;4913889;29;19982;-82
2024/03/27 10:44:23;;;;;;;;;;;;;;;5.25;100.00;96930.25;4898830;29;19923;-82
2024/03/27 10:46:51;;;;;;;;;;;;;;;5.02;100.00;96923.88;4915830;29;19926;-80
2024/03/27 10:49:18;;;;;;;;;;;;;;;4.89;100.00;96923.00;4898934;29;19923;-82
2024/03/27 10:51:43;;;;;;;;;;;;;;;4.63;100.00;96932.59;4915732;29;20378;-84
2024/03/27 10:54:10;;;;;;;;;;;;;;;4.70;100.00;96928.59;4898318;29;19942;-80
2024/03/27 10:56:35;;;;;;;;;;;;;;;5.51;100.00;96922.38;4897580;29;19919;-88
2024/03/27 10:59:01;;;;;;;;;;;;;;;6.16;100.00;96915.34;4898985;29;19931;-83
2024/03/27 11:01:26;;;;;;;;;;;;;;;12.25;100.00;96894.19;4915770;29;20022;-81
2024/03/27 11:03:52;;;;;;;;;;;;;;;13.59;100.00;96891.75;4915654;29;19923;-83
2024/03/27 11:06:17;;;;;;;;;;;;;;;14.37;100.00;96894.50;4898316;29;20398;-82
2024/03/27 11:08:47;;;;;;;;;;;;;;;15.32;100.00;96911.09;4898426;29;20387;-81
2024/03/27 11:11:13;;;;;;;;;;;;;;;15.52;100.00;96913.44;4914164;29;19919;-81
2024/03/27 11:13:43;;;;;;;;;;;;;;;15.31;100.00;96917.44;4915509;29;19953;-80
2024/03/27 11:16:12;;;;;;;;;;;;;;;15.21;100.00;96919.44;4915789;29;19946;-81
2024/03/27 11:18:37;;;;;;;;;;;;;;;15.36;100.00;96925.78;4915379;29;20022;-80
2024/03/27 11:21:03;;;;;;;;;;;;;;;15.67;100.00;96927.78;4915487;29;20014;-82
2024/03/27 11:23:30;;;;;;;;;;;;;;;10.72;100.00;96936.47;4915454;29;19958;-84
2024/03/27 11:25:56;;;;;;;;;;;;;;;9.09;100.00;96946.72;4898301;29;20476;-79
2024/03/27 11:28:22;;;;;;;;;;;;;;;8.58;100.00;96951.75;4913578;29;19919;-82
2024/03/27 11:30:47;;;;;;;;;;;;;;;8.24;100.00;96946.47;4915659;29;19979;-79
2024/03/27 11:33:13;;;;;;;;;;;;;;;7.91;100.00;96940.22;4898704;29;20430;-81
2024/03/27 11:35:40;;;;;;;;;;;;;;;7.86;100.00;96945.03;4898285;29;20279;-81
2024/03/27 11:38:05;;;;;;;;;;;;;;;7.80;100.00;96944.53;4917279;29;20358;-85
2024/03/27 11:40:31;;;;;;;;;;;;;;;7.62;100.00;96940.66;4919193;29;19919;-78
2024/03/27 11:42:56;;;;;;;;;;;;;;;7.43;100.00;96941.22;4917614;29;20362;-80
2024/03/27 11:45:23;;;;;;;;;;;;;;;7.21;100.00;96952.50;4919029;29;19919;-82
2024/03/27 11:47:51;;;;;;;;;;;;;;;7.06;100.00;96951.88;4919117;29;19944;-81
2024/03/27 11:50:20;;;;;;;;;;;;;;;7.00;100.00;96962.84;4918849;29;19962;-80
2024/03/27 11:52:45;;;;;;;;;;;;;;;6.90;100.00;96958.25;4918099;29;19930;-82
2024/03/27 11:55:10;;;;;;;;;;;;;;;6.89;100.00;96960.97;4918787;29;20367;-79
2024/03/27 11:57:36;;;;;;;;;;;;;;;6.88;100.00;96961.97;4917448;29;20401;-80
2024/03/27 12:00:07;;;;;;;;;;;;;;;6.72;100.00;96960.44;4918558;29;19919;-82
2024/03/27 12:02:32;;;;;;;;;;;;;;;6.83;100.00;96969.31;4918594;29;19920;-81
2024/03/27 12:05:03;;;;;;;;;;;;;;;6.81;100.00;96968.59;4918178;29;19923;-79
2024/03/27 12:07:29;;;;;;;;;;;;;;;6.63;100.00;96968.97;4918220;29;20025;-79
2024/03/27 12:09:54;;;;;;;;;;;;;;;6.65;100.00;96975.00;4918418;29;20014;-80
2024/03/27 12:12:19;;;;;;;;;;;;;;;6.64;100.00;96978.56;4917322;29;19919;-82
2024/03/27 12:14:45;;;;;;;;;;;;;;;6.55;100.00;96984.47;4918584;29;20002;-80
2024/03/27 12:17:11;;;;;;;;;;;;;;;6.48;100.00;96988.50;4901248;29;19930;-83
2024/03/27 12:19:36;;;;;;;;;;;;;;;6.50;100.00;96997.94;4901151;29;19923;-80
2024/03/27 12:22:02;;;;;;;;;;;;;;;6.53;100.00;97010.06;4917943;29;19926;-85
2024/03/27 12:24:28;;;;;;;;;;;;;;;6.60;100.00;97008.66;4900979;29;19919;-85
2024/03/27 12:26:53;;;;;;;;;;;;;;;6.43;100.00;97006.38;4916430;29;20066;-86
2024/03/27 12:29:18;;;;;;;;;;;;;;;6.42;100.00;97012.59;4918053;29;19926;-84
2024/03/27 12:31:48;;;;;;;;;;;;;;;6.46;100.00;97016.69;4917975;29;19919;-83
2024/03/27 12:34:13;;;;;;;;;;;;;;;6.32;100.00;97004.53;4917841;29;20010;-83
2024/03/27 12:36:38;;;;;;;;;;;;;;;6.28;100.00;97009.13;4917920;29;20400;-85
2024/03/27 12:39:03;;;;;;;;;;;;;;;6.25;100.00;97011.97;4917700;29;20005;-84
2024/03/27 12:41:29;;;;;;;;;;;;;;;6.34;100.00;97015.75;4916548;29;20291;-85
2024/03/27 12:43:54;;;;;;;;;;;;;;;6.18;100.00;97024.69;4917928;29;19926;-85
2024/03/27 12:46:20;;;;;;;;;;;;;;;6.31;100.00;97024.69;4917691;29;20362;-84
2024/03/27 12:48:46;;;;;;;;;;;;;;;6.21;100.00;97028.06;4917583;29;19966;-80
2024/03/27 12:51:11;;;;;;;;;;;;;;;6.22;100.00;97019.22;4917880;29;19956;-85
2024/03/27 12:53:36;;;;;;;;;;;;;;;6.33;100.00;97017.56;4917536;29;19971;-84
2024/03/27 12:56:01;;;;;;;;;;;;;;;6.19;100.00;97015.06;4917471;29;19930;-85
2024/03/27 12:58:27;;;;;;;;;;;;;;;6.10;100.00;97015.69;4916050;29;20361;-81
2024/03/27 13:00:52;;;;;;;;;;;;;;;6.17;100.00;97019.56;4917671;29;19923;-79
2024/03/27 13:03:17;;;;;;;;;;;;;;;6.04;100.00;97010.84;4917442;29;19926;-81
2024/03/27 13:05:42;;;;;;;;;;;;;;;6.15;100.00;97016.19;4917244;29;19922;-79
2024/03/27 13:08:08;;;;;;;;;;;;;;;6.14;100.00;97017.13;4916404;29;19927;-83
2024/03/27 13:10:35;;;;;;;;;;;;;;;6.02;100.00;97013.56;4900310;29;20009;-81
2024/03/27 13:13:01;;;;;;;;;;;;;;;5.95;100.00;97007.88;4915900;29;19927;-86
2024/03/27 13:15:26;;;;;;;;;;;;;;;6.06;100.00;97009.75;4917081;29;19923;-88
2024/03/27 13:17:52;;;;;;;;;;;;;;;6.00;100.00;97011.03;4917431;29;19969;-90
2024/03/27 13:20:17;;;;;;;;;;;;;;;6.02;100.00;97012.75;4917898;29;19993;-82
2024/03/27 13:22:42;;;;;;;;;;;;;;;5.98;100.00;97012.94;4917093;29;19915;-88
2024/03/27 13:25:08;;;;;;;;;;;;;;;5.89;100.00;97017.94;4899789;29;20025;-86
2024/03/27 13:27:33;;;;;;;;;;;;;;;5.87;100.00;97019.81;4915679;29;20211;-84
2024/03/27 13:30:00;;;;;;;;;;;;;;;5.87;100.00;97020.69;4917036;29;20374;-86
2024/03/27 13:32:30;;;;;;;;;;;;;;;5.83;100.00;97012.16;4900130;29;19929;-81
2024/03/27 13:34:55;;;;;;;;;;;;;;;5.80;100.00;97016.78;4917170;29;20278;-86
2024/03/27 13:37:20;;;;;;;;;;;;;;;5.78;100.00;97010.78;4916351;29;19919;-84
2024/03/27 13:39:45;;;;;;;;;;;;;;;5.88;100.00;97008.38;4916893;29;19934;-85
2024/03/27 13:42:11;;;;;;;;;;;;;;;5.85;100.00;97004.16;4915457;29;19915;-80
2024/03/27 13:44:36;;;;;;;;;;;;;;;5.70;100.00;97008.69;4916560;29;20359;-83
2024/03/27 13:47:03;;;;;;;;;;;;;;;5.70;100.00;97013.09;4898972;29;20217;-82
2024/03/27 13:49:29;;;;;;;;;;;;;;;5.72;100.00;97011.19;4916561;29;19923;-81
2024/03/27 13:51:54;;;;;;;;;;;;;;;5.70;100.00;97018.34;4899616;29;19922;-81
2024/03/27 13:54:19;;;;;;;;;;;;;;;5.69;100.00;97014.88;4916210;29;19920;-81
2024/03/27 13:56:45;;;;;;;;;;;;;;;5.69;100.00;97021.91;4915351;29;19928;-84
2024/03/27 13:59:10;;;;;;;;;;;;;;;5.58;100.00;97027.88;4898953;29;19987;-82
2024/03/27 14:01:35;;;;;;;;;;;;;;;5.60;100.00;97025.97;4914543;29;20390;-75
2024/03/27 14:04:00;;;;;;;;;;;;;;;5.55;100.00;97023.69;4914572;29;19934;-79
2024/03/27 14:06:25;;;;;;;;;;;;;;;5.66;100.00;97022.94;4915416;29;19974;-78
2024/03/27 14:08:51;;;;;;;;;;;;;;;5.65;100.00;97026.53;4915670;29;20018;-81
2024/03/27 14:11:16;;;;;;;;;;;;;;;5.58;100.00;97035.75;4914275;29;19923;-81
2024/03/27 14:13:41;;;;;;;;;;;;;;;5.63;100.00;97036.28;4915263;29;19938;-81
2024/03/27 14:16:07;;;;;;;;;;;;;;;5.56;100.00;97035.03;4915736;29;19923;-79
2024/03/27 14:18:32;;;;;;;;;;;;;;;5.56;100.00;97033.22;4915107;29;19923;-82
2024/03/27 14:20:57;;;;;;;;;;;;;;;5.50;100.00;97038.88;4915093;29;19931;-81
2024/03/27 14:23:23;;;;;;;;;;;;;;;5.49;100.00;97049.50;4914594;29;20070;-82
2024/03/27 14:25:49;;;;;;;;;;;;;;;5.52;100.00;97047.53;4915423;29;20034;-82
2024/03/27 14:28:15;;;;;;;;;;;;;;;5.54;100.00;97045.63;4914838;29;19931;-81
2024/03/27 14:30:40;;;;;;;;;;;;;;;5.53;100.00;97046.56;4915131;29;19931;-80
2024/03/27 14:33:06;;;;;;;;;;;;;;;5.57;100.00;97053.31;4915160;29;20291;-81
2024/03/27 14:35:31;;;;;;;;;;;;;;;5.66;100.00;97059.72;4898582;29;19923;-78
2024/03/27 14:37:56;;;;;;;;;;;;;;;5.73;100.00;97053.13;4915718;29;19931;-80
2024/03/27 14:40:21;;;;;;;;;;;;;;;5.75;100.00;97043.34;4914800;29;19964;-78
2024/03/27 14:42:47;;;;;;;;;;;;;;;5.71;100.00;97046.28;4914239;29;19927;-83
2024/03/27 14:45:12;;;;;;;;;;;;;;;5.67;100.00;97048.28;4914950;29;19970;-81
2024/03/27 14:47:38;;;;;;;;;;;;;;;5.69;100.00;97053.44;4915633;29;19923;-79
2024/03/27 14:50:03;;;;;;;;;;;;;;;5.83;100.00;97061.25;4914843;29;19922;-83
2024/03/27 14:52:28;;;;;;;;;;;;;;;5.82;100.00;97054.28;4914149;29;19935;-78
2024/03/27 14:54:54;;;;;;;;;;;;;;;5.76;100.00;97060.81;4915162;29;20299;-82
2024/03/27 14:57:19;;;;;;;;;;;;;;;5.84;100.00;97049.81;4913369;29;20507;-81
2024/03/27 14:59:44;;;;;;;;;;;;;;;5.71;100.00;97044.53;4913731;29;19923;-79
2024/03/27 15:02:09;;;;;;;;;;;;;;;5.75;100.00;97039.91;4915793;29;20398;-83
2024/03/27 15:04:35;;;;;;;;;;;;;;;5.79;100.00;97036.09;4916032;29;20372;-83
2024/03/27 15:07:00;;;;;;;;;;;;;;;5.71;100.00;97038.41;4915552;29;19996;-79
2024/03/27 15:09:25;;;;;;;;;;;;;;;5.73;100.00;97044.44;4915619;29;20022;-79
2024/03/27 15:11:50;;;;;;;;;;;;;;;5.85;100.00;97042.75;4914382;29;19919;-82
2024/03/27 15:14:16;;;;;;;;;;;;;;;5.70;100.00;97049.88;4902209;29;19927;-82
2024/03/27 15:16:41;;;;;;;;;;;;;;;5.69;100.00;97048.19;4902277;29;19935;-85
2024/03/27 15:19:07;;;;;;;;;;;;;;;5.72;100.00;97042.72;4902167;29;19919;-81
2024/03/27 15:21:32;;;;;;;;;;;;;;;5.68;100.00;97041.25;4919560;29;19958;-80
2024/03/27 15:23:57;;;;;;;;;;;;;;;5.72;100.00;97038.31;4918685;29;19923;-81
2024/03/27 15:26:23;;;;;;;;;;;;;;;5.78;100.00;97039.69;4917690;29;20466;-81
2024/03/27 15:28:48;;;;;;;;;;;;;;;5.64;100.00;97033.56;4919065;29;19927;-80
2024/03/27 15:31:13;;;;;;;;;;;;;;;5.71;100.00;97034.03;4919264;29;19922;-80
2024/03/27 15:33:38;;;;;;;;;;;;;;;5.76;100.00;97036.31;4918818;29;19920;-81
2024/03/27 15:36:04;;;;;;;;;;;;;;;5.69;100.00;97032.44;4918918;29;20009;-80
2024/03/27 15:38:29;;;;;;;;;;;;;;;5.67;100.00;97029.91;4918000;29;19958;-80
2024/03/27 15:40:55;;;;;;;;;;;;;;;5.70;100.00;97021.81;4918715;29;19930;-80
2024/03/27 15:43:22;;;;;;;;;;;;;;;5.59;100.00;97022.53;4916540;29;19915;-81
2024/03/27 15:45:50;;;;;;;;;;;;;;;5.62;100.00;97022.31;4918660;29;19919;-80
2024/03/27 15:48:16;;;;;;;;;;;;;;;5.62;100.00;97024.13;4918412;29;19930;-82
2024/03/27 15:50:41;;;;;;;;;;;;;;;5.74;100.00;97015.38;4918095;29;20525;-80
2024/03/27 15:53:07;;;;;;;;;;;;;;;5.70;100.00;97018.34;4918085;29;20375;-82
2024/03/27 15:55:32;;;;;;;;;;;;;;;5.63;100.00;97023.16;4901782;29;19923;-79
2024/03/27 15:57:58;;;;;;;;;;;;;;;5.58;100.00;97020.81;4917201;29;20398;-81
2024/03/27 16:00:23;;;;;;;;;;;;;;;5.64;100.00;97019.59;4918416;29;19923;-80
2024/03/27 16:02:49;;;;;;;;;;;;;;;5.66;100.00;97022.13;4918486;29;19926;-87
2024/03/27 16:05:14;;;;;;;;;;;;;;;5.59;100.00;97029.56;4901497;29;20299;-81
2024/03/27 16:07:39;;;;;;;;;;;;;;;5.61;100.00;97035.56;4918755;29;20018;-82
2024/03/27 16:10:05;;;;;;;;;;;;;;;5.61;100.00;97033.75;4918624;29;19919;-78
2024/03/27 16:12:30;;;;;;;;;;;;;;;5.64;100.00;97022.22;4917334;29;19919;-82
2024/03/27 16:14:55;;;;;;;;;;;;;;;5.61;100.00;97020.63;4901271;29;19919;-80
2024/03/27 16:17:21;;;;;;;;;;;;;;;5.54;100.00;97029.03;4917871;29;20390;-79
2024/03/27 16:19:46;;;;;;;;;;;;;;;5.54;100.00;97024.63;4918142;29;19923;-82
2024/03/27 16:22:11;;;;;;;;;;;;;;;5.61;100.00;97031.13;4898465;29;19930;-82
2024/03/27 16:24:37;;;;;;;;;;;;;;;5.49;100.00;97023.22;4917634;29;20014;-87
2024/03/27 16:27:02;;;;;;;;;;;;;;;5.50;100.00;97024.94;4917023;29;19919;-83
2024/03/27 16:29:28;;;;;;;;;;;;;;;5.49;100.00;97029.34;4917908;29;20026;-80
2024/03/27 16:31:53;;;;;;;;;;;;;;;5.53;100.00;97030.81;4918022;29;19966;-81
2024/03/27 16:34:18;;;;;;;;;;;;;;;5.52;100.00;97037.03;4917887;29;19930;-87
2024/03/27 16:36:43;;;;;;;;;;;;;;;5.43;100.00;97032.38;4918764;29;19923;-86
2024/03/27 16:39:09;;;;;;;;;;;;;;;5.39;100.00;97039.63;4917877;29;19966;-81
2024/03/27 16:41:34;;;;;;;;;;;;;;;5.51;100.00;97050.25;4916621;29;20386;-80
2024/03/27 16:43:59;;;;;;;;;;;;;;;5.43;100.00;97048.13;4917820;29;20319;-80
2024/03/27 16:46:24;;;;;;;;;;;;;;;5.43;100.00;97050.75;4917657;29;20316;-80
2024/03/27 16:48:50;;;;;;;;;;;;;;;5.42;100.00;97051.69;4917606;29;20438;-82
2024/03/27 16:51:15;;;;;;;;;;;;;;;5.43;100.00;97048.13;4900619;29;20282;-81
2024/03/27 16:53:40;;;;;;;;;;;;;;;5.39;100.00;97049.25;4917499;29;19950;-79
2024/03/27 16:56:06;;;;;;;;;;;;;;;6.44;100.00;97050.97;4917693;29;19966;-81
2024/03/27 16:58:31;;;;;;;;;;;;;;;5.43;100.00;97053.38;4899142;29;19923;-82
2024/03/27 17:00:56;;;;;;;;;;;;;;;5.40;100.00;97048.31;4917488;29;19939;-80
2024/03/27 17:03:21;;;;;;;;;;;;;;;5.24;100.00;97058.97;4900566;29;19967;-83
2024/03/27 17:05:47;;;;;;;;;;;;;;;5.23;100.00;97057.28;4917473;29;20454;-82
2024/03/27 17:08:12;;;;;;;;;;;;;;;5.18;100.00;97049.72;4900297;29;20287;-80
2024/03/27 17:10:38;;;;;;;;;;;;;;;5.14;100.00;97039.50;4917394;29;19923;-82
2024/03/27 17:13:03;;;;;;;;;;;;;;;5.09;100.00;97038.03;4899215;29;19920;-82
2024/03/27 17:15:28;;;;;;;;;;;;;;;5.12;100.00;97044.84;4917226;29;19970;-81
2024/03/27 17:17:54;;;;;;;;;;;;;;;5.06;100.00;97046.09;4917040;29;20010;-80
2024/03/27 17:20:19;;;;;;;;;;;;;;;5.04;100.00;97044.50;4917002;29;19923;-81
2024/03/27 17:22:45;;;;;;;;;;;;;;;5.04;100.00;97044.50;4917122;29;19919;-81
2024/03/27 17:25:10;;;;;;;;;;;;;;;5.06;100.00;97034.78;4916872;29;19923;-81
2024/03/27 17:27:36;;;;;;;;;;;;;;;4.99;100.00;97038.72;4915760;29;19926;-81
2024/03/27 17:30:01;;;;;;;;;;;;;;;5.01;100.00;97034.19;4916900;29;20043;-85
2024/03/27 17:32:26;;;;;;;;;;;;;;;5.00;100.00;97036.00;4916815;29;19978;-81
2024/03/27 17:34:51;;;;;;;;;;;;;;;5.02;100.00;97033.28;4916050;29;20006;-83
2024/03/27 17:37:17;;;;;;;;;;;;;;;4.96;100.00;97028.41;4916810;29;19919;-80
2024/03/27 17:39:42;;;;;;;;;;;;;;;4.91;100.00;97026.94;4916717;29;19919;-82
2024/03/27 17:42:07;;;;;;;;;;;;;;;5.00;100.00;97019.41;4915613;29;19927;-81
2024/03/27 17:44:32;;;;;;;;;;;;;;;4.87;100.00;97022.81;4916294;29;19919;-82
2024/03/27 17:46:57;;;;;;;;;;;;;;;4.95;100.00;97026.75;4899576;29;19925;-80
2024/03/27 17:49:23;;;;;;;;;;;;;;;4.89;100.00;97030.59;4916491;29;20005;-80
2024/03/27 17:51:48;;;;;;;;;;;;;;;4.89;100.00;97026.19;4916465;29;20347;-82
2024/03/27 17:54:13;;;;;;;;;;;;;;;4.90;100.00;97024.41;4899472;29;19923;-81
2024/03/27 17:56:39;;;;;;;;;;;;;;;4.86;100.00;97023.75;4915286;29;19923;-85
2024/03/27 17:59:04;;;;;;;;;;;;;;;4.91;100.00;97032.19;4899542;29;19933;-80
2024/03/27 18:01:29;;;;;;;;;;;;;;;4.89;100.00;97039.28;4916354;29;20252;-81
2024/03/27 18:03:55;;;;;;;;;;;;;;;4.86;100.00;97038.66;4916449;29;19989;-81
2024/03/27 18:06:20;;;;;;;;;;;;;;;4.83;100.00;97029.19;4916667;29;19919;-84
2024/03/27 18:08:45;;;;;;;;;;;;;;;4.79;100.00;97016.38;4915512;29;20290;-87
2024/03/27 18:11:10;;;;;;;;;;;;;;;4.83;100.00;97033.59;4915877;29;19966;-80
2024/03/27 18:13:36;;;;;;;;;;;;;;;4.80;100.00;97026.75;4915062;29;20010;-80
2024/03/27 18:16:04;;;;;;;;;;;;;;;4.79;100.00;97030.34;4915894;29;20022;-80
2024/03/27 18:18:29;;;;;;;;;;;;;;;4.76;100.00;97022.66;4898845;29;19926;-83
2024/03/27 18:20:54;;;;;;;;;;;;;;;4.78;100.00;97020.78;4916129;29;19919;-81
2024/03/27 18:23:21;;;;;;;;;;;;;;;4.80;100.00;97024.13;4899017;29;20256;-84
2024/03/27 18:25:46;;;;;;;;;;;;;;;4.80;100.00;97032.00;4899308;29;20287;-82
2024/03/27 18:28:11;;;;;;;;;;;;;;;4.76;100.00;97032.31;4914839;29;19930;-82
2024/03/27 18:30:36;;;;;;;;;;;;;;;4.73;100.00;97028.09;4915927;29;19923;-81
2024/03/27 18:33:02;;;;;;;;;;;;;;;4.71;100.00;97025.56;4915903;29;19919;-82
2024/03/27 18:35:27;;;;;;;;;;;;;;;4.69;100.00;97029.22;4915822;29;19923;-81
2024/03/27 18:37:52;;;;;;;;;;;;;;;4.68;100.00;97024.94;4915989;29;20345;-87
2024/03/27 18:40:18;;;;;;;;;;;;;;;4.71;100.00;97024.72;4915911;29;19926;-84
2024/03/27 18:42:43;;;;;;;;;;;;;;;4.71;100.00;97019.50;4914734;29;20496;-83
2024/03/27 18:45:09;;;;;;;;;;;;;;;4.71;100.00;97019.50;4915685;29;19919;-82
2024/03/27 18:47:35;;;;;;;;;;;;;;;4.72;100.00;97015.91;4920613;29;19926;-81
2024/03/27 18:50:00;;;;;;;;;;;;;;;4.68;100.00;97019.69;4922123;29;20006;-83
2024/03/27 18:52:26;;;;;;;;;;;;;;;4.74;100.00;97016.66;4922003;29;20010;-82
2024/03/27 18:54:53;;;;;;;;;;;;;;;4.74;100.00;97014.06;4904994;29;19927;-81
2024/03/27 18:57:18;;;;;;;;;;;;;;;4.68;100.00;97019.69;4903768;29;20006;-81
2024/03/27 18:59:43;;;;;;;;;;;;;;;4.67;100.00;97018.81;4921890;29;20022;-83
2024/03/27 19:02:08;;;;;;;;;;;;;;;4.65;100.00;97025.94;4921826;29;19966;-86
2024/03/27 19:04:34;;;;;;;;;;;;;;;4.67;100.00;97028.47;4904763;29;20006;-82